Time;durP1;ratioP1;P1;durP2;ratioP2;P2;SDS_P1;SDS_P2;PMS_P1;PMS_P2;Temp;Humidity;BMP_temperature;BMP_pressure;BME280_temperature;BME280_humidity;BME280_pressure;Samples;Min_cycle;Max_cycle;Signal;HPM_P1;HPM_P2
2023/07/01 00:00:24;;;;;;;0.70;0.70;;;;;;;23.56;42.40;99925.75;4535546;28;20035;-66
2023/07/01 00:02:41;;;;;;;0.70;0.70;;;;;;;23.54;42.44;99919.56;4536626;28;20134;-67
2023/07/01 00:04:51;;;;;;;0.50;0.50;;;;;;;23.49;43.13;99909.25;4536321;28;20547;-67
2023/07/01 00:07:03;;;;;;;0.50;0.50;;;;;;;23.59;42.92;99924.94;4536029;28;20033;-66
2023/07/01 00:09:13;;;;;;;0.70;0.68;;;;;;;23.54;42.13;99920.38;4536340;28;20037;-67
2023/07/01 00:11:24;;;;;;;0.57;0.57;;;;;;;23.54;42.58;99911.75;4536326;28;20485;-66
2023/07/01 00:13:34;;;;;;;1.08;0.60;;;;;;;23.54;42.19;99905.16;4536089;28;20130;-66
2023/07/01 00:15:45;;;;;;;0.60;0.60;;;;;;;23.53;41.95;99909.28;4534892;28;20511;-68
2023/07/01 00:17:55;;;;;;;0.68;0.68;;;;;;;23.54;41.51;99900.22;4537506;28;20464;-66
2023/07/01 00:20:07;;;;;;;0.60;0.60;;;;;;;23.54;41.47;99900.22;4536106;28;20068;-66
2023/07/01 00:22:17;;;;;;;0.90;0.60;;;;;;;23.51;41.73;99889.50;4535169;28;20057;-68
2023/07/01 00:24:28;;;;;;;0.60;0.60;;;;;;;23.55;42.02;99901.84;4536184;28;20045;-66
2023/07/01 00:26:38;;;;;;;1.25;0.60;;;;;;;23.51;42.14;99895.28;4536652;28;20052;-69
2023/07/01 00:28:49;;;;;;;0.63;0.60;;;;;;;23.50;41.69;99887.00;4537330;28;20681;-67
2023/07/01 00:30:59;;;;;;;1.08;0.70;;;;;;;23.50;41.11;99887.00;4534415;28;20132;-67
2023/07/01 00:33:10;;;;;;;0.70;0.70;;;;;;;23.55;41.28;99895.25;4536733;28;20083;-68
2023/07/01 00:35:20;;;;;;;0.65;0.65;;;;;;;23.55;41.08;99892.38;4535750;28;20034;-67
2023/07/01 00:37:31;;;;;;;0.80;0.80;;;;;;;23.53;41.69;99887.03;4535522;28;20250;-68
2023/07/01 00:39:42;;;;;;;0.70;0.70;;;;;;;23.54;40.63;99887.88;4534643;28;20152;-67
2023/07/01 00:41:55;;;;;;;0.68;0.68;;;;;;;23.53;41.35;99886.22;4535993;28;20063;-68
2023/07/01 00:44:06;;;;;;;0.70;0.63;;;;;;;23.49;41.38;99877.56;4536345;28;20552;-68
2023/07/01 00:46:16;;;;;;;0.80;0.60;;;;;;;23.50;41.79;99876.31;4534699;28;20041;-68
2023/07/01 00:48:29;;;;;;;1.02;0.70;;;;;;;23.50;41.21;99872.59;4536227;28;20065;-67
2023/07/01 00:50:39;;;;;;;0.70;0.70;;;;;;;23.47;41.45;99870.53;4536238;28;20583;-67
2023/07/01 00:52:50;;;;;;;0.63;0.60;;;;;;;23.51;41.15;99871.38;4536363;28;20045;-68
2023/07/01 00:55:01;;;;;;;0.60;0.60;;;;;;;23.51;41.06;99859.88;4536784;28;20041;-67
2023/07/01 00:57:11;;;;;;;0.73;0.60;;;;;;;23.50;40.83;99858.19;4537053;28;20543;-69
2023/07/01 00:59:22;;;;;;;0.52;0.52;;;;;;;23.51;41.52;99862.75;4535583;28;20042;-67
2023/07/01 01:01:37;;;;;;;0.80;0.70;;;;;;;23.47;41.09;99850.38;4550872;28;20033;-67
2023/07/01 01:03:53;;;;;;;0.60;0.60;;;;;;;23.50;40.95;99852.44;4540446;28;20033;-66
2023/07/01 01:06:36;;;;;;;0.70;0.70;;;;;;;23.53;41.03;99866.06;4536504;28;20512;-67
2023/07/01 01:09:02;;;;;;;0.85;0.70;;;;;;;23.53;41.58;99857.41;4536395;28;20041;-67
2023/07/01 01:11:14;;;;;;;0.65;0.65;;;;;;;23.53;40.43;99863.19;4535998;28;20045;-67
2023/07/01 01:13:26;;;;;;;0.93;0.73;;;;;;;23.51;40.37;99852.06;4533825;28;20128;-67
2023/07/01 01:15:38;;;;;;;0.80;0.80;;;;;;;23.49;39.97;99837.22;4522503;28;21247;-66
2023/07/01 01:17:52;;;;;;;0.63;0.60;;;;;;;23.51;39.84;99845.47;4536583;28;20041;-67
2023/07/01 01:20:13;;;;;;;1.13;0.70;;;;;;;23.49;39.62;99848.75;4536341;28;20630;-66
2023/07/01 01:22:33;;;;;;;1.17;0.80;;;;;;;23.51;40.63;99845.47;4550502;28;20062;-67
2023/07/01 01:24:49;;;;;;;0.60;0.60;;;;;;;23.51;39.95;99839.69;4536236;28;20029;-66
2023/07/01 01:27:04;;;;;;;0.60;0.60;;;;;;;23.49;40.59;99831.47;4535974;28;20041;-67
2023/07/01 01:29:15;;;;;;;0.60;0.60;;;;;;;23.44;40.65;99825.25;4540832;28;20029;-66
2023/07/01 01:31:28;;;;;;;0.50;0.50;;;;;;;23.50;40.87;99835.16;4522765;28;20517;-66
2023/07/01 01:33:40;;;;;;;0.60;0.60;;;;;;;23.50;41.03;99838.03;4535518;28;20029;-66
2023/07/01 01:35:51;;;;;;;0.50;0.50;;;;;;;23.50;41.00;99838.03;4535692;28;20037;-66
2023/07/01 01:38:08;;;;;;;0.70;0.70;;;;;;;23.48;40.55;99820.34;4535197;28;20037;-66
2023/07/01 01:40:31;;;;;;;0.68;0.65;;;;;;;23.49;40.19;99833.50;4533400;28;20037;-66
2023/07/01 01:42:45;;;;;;;0.60;0.60;;;;;;;23.49;41.05;99825.72;4537110;28;20641;-66
2023/07/01 01:44:57;;;;;;;1.23;0.70;;;;;;;23.43;41.00;99812.94;4532416;28;20148;-66
2023/07/01 01:47:07;;;;;;;0.60;0.60;;;;;;;23.47;40.78;99807.16;4534561;28;20065;-66
2023/07/01 01:49:19;;;;;;;0.60;0.60;;;;;;;23.47;40.62;99807.16;4537007;28;20148;-66
2023/07/01 01:51:32;;;;;;;0.50;0.50;;;;;;;23.47;40.96;99801.41;4534902;28;20047;-66
2023/07/01 01:53:43;;;;;;;0.70;0.70;;;;;;;23.43;40.15;99794.81;4537102;28;20073;-66
2023/07/01 01:55:54;;;;;;;0.60;0.60;;;;;;;23.46;41.15;99796.88;4533417;28;20021;-66
2023/07/01 01:58:05;;;;;;;0.98;0.70;;;;;;;23.38;41.50;99769.28;4550237;28;20036;-66
2023/07/01 02:00:16;;;;;;;0.60;0.60;;;;;;;23.35;41.20;99767.22;4533713;28;20025;-66
2023/07/01 02:02:27;;;;;;;0.50;0.50;;;;;;;23.45;41.10;99777.97;4534449;28;20037;-66
2023/07/01 02:04:38;;;;;;;0.52;0.52;;;;;;;23.43;41.12;99774.66;4535033;28;20079;-66
2023/07/01 02:06:48;;;;;;;0.95;0.60;;;;;;;23.37;40.99;99761.88;4536595;28;20159;-66
2023/07/01 02:08:59;;;;;;;0.68;0.68;;;;;;;23.44;40.94;99768.50;4534365;28;20039;-67
2023/07/01 02:11:10;;;;;;;0.85;0.63;;;;;;;23.44;40.71;99773.41;4535526;28;20830;-66
2023/07/01 02:13:20;;;;;;;0.50;0.50;;;;;;;23.43;40.63;99760.25;4524940;28;20127;-66
2023/07/01 02:15:31;;;;;;;0.60;0.60;;;;;;;23.36;40.78;99751.59;4535201;28;20144;-66
2023/07/01 02:17:42;;;;;;;0.60;0.60;;;;;;;23.45;40.51;99757.81;4536261;28;20154;-66
2023/07/01 02:19:52;;;;;;;0.60;0.60;;;;;;;23.42;40.50;99747.09;4536292;28;20127;-66
2023/07/01 02:22:03;;;;;;;0.57;0.57;;;;;;;23.45;40.85;99757.81;4537027;28;20074;-66
2023/07/01 02:24:13;;;;;;;0.60;0.60;;;;;;;23.42;41.19;99742.16;4537574;28;20060;-66
2023/07/01 02:26:24;;;;;;;0.60;0.60;;;;;;;23.41;41.27;99739.66;4537711;28;20029;-66
2023/07/01 02:28:35;;;;;;;0.65;0.65;;;;;;;23.38;41.06;99731.84;4539372;28;20029;-66
2023/07/01 02:30:45;;;;;;;0.63;0.60;;;;;;;23.43;41.45;99740.94;4539031;28;20029;-66
2023/07/01 02:32:56;;;;;;;0.70;0.65;;;;;;;23.43;40.98;99735.19;4538822;28;20045;-66
2023/07/01 02:35:07;;;;;;;0.75;0.60;;;;;;;23.43;40.78;99737.22;4537696;28;20037;-66
2023/07/01 02:37:17;;;;;;;1.55;0.70;;;;;;;23.44;41.00;99735.97;4539651;28;20048;-66
2023/07/01 02:39:28;;;;;;;0.82;0.63;;;;;;;23.42;41.28;99724.06;4537078;28;20040;-66
2023/07/01 02:41:39;;;;;;;1.48;0.68;;;;;;;23.40;40.93;99732.28;4538673;28;20041;-66
2023/07/01 02:43:49;;;;;;;0.60;0.60;;;;;;;23.44;41.18;99727.34;4537521;28;20040;-66
2023/07/01 02:45:59;;;;;;;0.70;0.60;;;;;;;23.44;41.27;99733.09;4536853;28;20044;-66
2023/07/01 02:48:10;;;;;;;1.05;0.63;;;;;;;23.44;41.21;99727.34;4539545;28;20807;-66
2023/07/01 02:50:20;;;;;;;0.50;0.50;;;;;;;23.42;40.93;99724.06;4538352;28;20025;-66
2023/07/01 02:52:31;;;;;;;0.77;0.60;;;;;;;23.43;41.21;99726.53;4537638;28;20044;-66
2023/07/01 02:54:41;;;;;;;0.75;0.70;;;;;;;23.43;41.83;99728.56;4540743;28;20041;-66
2023/07/01 02:56:52;;;;;;;0.60;0.60;;;;;;;23.40;40.90;99712.13;4538544;28;20025;-66
2023/07/01 02:59:03;;;;;;;0.70;0.70;;;;;;;23.43;41.16;99726.53;4537079;28;20037;-66
2023/07/01 03:01:14;;;;;;;1.20;0.90;;;;;;;23.40;41.06;99712.91;4525659;28;21090;-66
2023/07/01 03:03:24;;;;;;;0.70;0.60;;;;;;;23.41;41.33;99716.63;4527563;28;20500;-66
2023/07/01 03:05:35;;;;;;;0.95;0.70;;;;;;;23.37;41.28;99705.09;4552657;28;20032;-66
2023/07/01 03:07:51;;;;;;;0.70;0.70;;;;;;;23.38;41.31;99705.94;4538661;28;20310;-66
2023/07/01 03:10:02;;;;;;;0.80;0.70;;;;;;;23.34;40.94;99693.59;4537110;28;20033;-66
2023/07/01 03:12:13;;;;;;;0.70;0.70;;;;;;;23.41;40.88;99710.88;4554049;28;20044;-66
2023/07/01 03:14:23;;;;;;;0.80;0.75;;;;;;;23.35;40.75;99686.59;4537121;28;20923;-66
2023/07/01 03:16:34;;;;;;;0.60;0.60;;;;;;;23.39;40.53;99698.94;4538746;28;20067;-66
2023/07/01 03:18:44;;;;;;;0.52;0.52;;;;;;;23.41;40.71;99699.34;4538491;28;20029;-66
2023/07/01 03:20:57;;;;;;;0.60;0.60;;;;;;;23.37;40.39;99692.78;4537029;28;20096;-67
2023/07/01 03:23:08;;;;;;;0.88;0.63;;;;;;;23.34;41.14;99688.63;4537747;28;20029;-68
2023/07/01 03:25:18;;;;;;;0.60;0.60;;;;;;;23.37;40.88;99696.47;4538352;28;20041;-68
2023/07/01 03:27:30;;;;;;;1.00;0.60;;;;;;;23.37;40.88;99689.91;4534864;28;20133;-68
2023/07/01 03:29:41;;;;;;;0.95;0.70;;;;;;;23.33;41.29;99683.28;4535535;28;20039;-68
2023/07/01 03:31:51;;;;;;;0.80;0.70;;;;;;;23.35;40.53;99684.53;4510508;28;20767;-68
2023/07/01 03:34:02;;;;;;;0.80;0.63;;;;;;;23.38;40.67;99688.66;4537316;28;20098;-67
2023/07/01 03:36:12;;;;;;;0.63;0.60;;;;;;;23.37;40.06;99678.38;4536394;28;20033;-68
2023/07/01 03:38:23;;;;;;;0.60;0.60;;;;;;;23.37;39.69;99684.94;4535968;28;20104;-67
2023/07/01 03:40:33;;;;;;;1.80;0.70;;;;;;;23.37;40.88;99687.81;4539377;28;21222;-68
2023/07/01 03:42:44;;;;;;;0.75;0.60;;;;;;;23.35;40.45;99684.53;4536956;28;20041;-68
2023/07/01 03:44:54;;;;;;;0.50;0.50;;;;;;;23.36;40.24;99691.09;4538421;28;20076;-68
2023/07/01 03:47:05;;;;;;;0.50;0.50;;;;;;;23.35;40.98;99683.72;4536623;28;20037;-67
2023/07/01 03:49:15;;;;;;;0.57;0.57;;;;;;;23.32;41.00;99676.72;4536268;28;21844;-68
2023/07/01 03:51:26;;;;;;;0.63;0.63;;;;;;;23.35;40.75;99681.66;4536645;28;20056;-68
2023/07/01 03:53:37;;;;;;;1.00;0.70;;;;;;;23.33;39.93;99680.41;4535818;28;20024;-67
2023/07/01 03:55:50;;;;;;;0.75;0.68;;;;;;;23.38;39.74;99677.13;4535815;28;20112;-67
2023/07/01 03:58:00;;;;;;;0.60;0.60;;;;;;;23.34;40.25;99667.69;4536442;28;20033;-68
2023/07/01 04:00:17;;;;;;;0.90;0.70;;;;;;;23.32;40.32;99670.13;4533669;28;20566;-67
2023/07/01 04:02:28;;;;;;;0.90;0.60;;;;;;;23.35;40.24;99666.44;4537521;28;20910;-68
2023/07/01 04:04:38;;;;;;;0.80;0.57;;;;;;;23.35;40.50;99673.03;4536654;28;20033;-68
2023/07/01 04:06:48;;;;;;;0.60;0.60;;;;;;;23.29;40.77;99654.47;4537384;28;20073;-68
2023/07/01 04:08:59;;;;;;;0.70;0.70;;;;;;;23.33;40.61;99657.38;4537341;28;20037;-67
2023/07/01 04:11:10;;;;;;;0.85;0.60;;;;;;;23.32;40.86;99656.56;4536801;28;20069;-67
2023/07/01 04:13:20;;;;;;;0.98;0.60;;;;;;;23.32;40.63;99649.97;4536802;28;20107;-67
2023/07/01 04:15:30;;;;;;;0.90;0.70;;;;;;;23.34;39.69;99653.28;4535488;28;20029;-67
2023/07/01 04:17:43;;;;;;;0.63;0.52;;;;;;;23.27;39.79;99642.56;4536842;28;20124;-67
2023/07/01 04:19:53;;;;;;;0.82;0.60;;;;;;;23.30;39.83;99643.78;4536572;28;20041;-68
2023/07/01 04:22:04;;;;;;;0.50;0.50;;;;;;;23.32;40.14;99638.47;4536443;28;20041;-68
2023/07/01 04:24:14;;;;;;;0.57;0.57;;;;;;;23.35;40.69;99643.41;4537467;28;20025;-67
2023/07/01 04:26:27;;;;;;;0.77;0.52;;;;;;;23.30;40.72;99635.16;4537221;28;20044;-67
2023/07/01 04:28:37;;;;;;;0.82;0.50;;;;;;;23.32;40.29;99626.94;4535897;28;20039;-68
2023/07/01 04:30:48;;;;;;;1.02;0.57;;;;;;;23.30;40.62;99624.47;4536878;28;20052;-68
2023/07/01 04:32:58;;;;;;;0.60;0.60;;;;;;;23.30;41.02;99620.75;4536818;28;20111;-68
2023/07/01 04:35:09;;;;;;;0.50;0.50;;;;;;;23.29;40.36;99619.13;4536420;28;20083;-68
2023/07/01 04:37:19;;;;;;;0.82;0.60;;;;;;;23.28;40.92;99605.94;4535980;28;20029;-69
2023/07/01 04:39:30;;;;;;;0.75;0.70;;;;;;;23.30;40.78;99615.84;4536697;28;20129;-68
2023/07/01 04:41:40;;;;;;;0.63;0.63;;;;;;;23.28;40.60;99611.69;4536741;28;20029;-68
2023/07/01 04:43:51;;;;;;;0.70;0.60;;;;;;;23.32;41.20;99619.13;4538071;28;20041;-68
2023/07/01 04:46:01;;;;;;;0.70;0.60;;;;;;;23.30;41.30;99617.88;4536405;28;20029;-67
2023/07/01 04:48:11;;;;;;;0.70;0.70;;;;;;;23.32;41.06;99615.44;4535123;28;20044;-67
2023/07/01 04:50:23;;;;;;;0.70;0.70;;;;;;;23.34;41.48;99615.84;4536458;28;20033;-68
2023/07/01 04:52:33;;;;;;;0.65;0.65;;;;;;;23.30;41.41;99612.94;4537646;28;20852;-68
2023/07/01 04:54:43;;;;;;;0.60;0.60;;;;;;;23.28;40.72;99606.78;4536539;28;20117;-67
2023/07/01 04:56:54;;;;;;;0.50;0.50;;;;;;;23.29;40.79;99608.41;4537149;28;20033;-68
2023/07/01 04:59:04;;;;;;;1.05;0.80;;;;;;;23.31;41.17;99611.72;4534881;28;20151;-67
2023/07/01 05:01:15;;;;;;;0.63;0.60;;;;;;;23.30;41.53;99603.47;4535358;28;20036;-67
2023/07/01 05:03:25;;;;;;;0.60;0.60;;;;;;;23.31;40.63;99602.25;4535643;28;20044;-68
2023/07/01 05:05:36;;;;;;;1.35;0.50;;;;;;;23.30;40.37;99601.44;4534342;28;20044;-68
2023/07/01 05:07:46;;;;;;;0.65;0.60;;;;;;;23.27;39.89;99590.75;4535790;28;20021;-68
2023/07/01 05:09:57;;;;;;;0.77;0.60;;;;;;;23.27;39.67;99589.91;4534652;28;20048;-68
2023/07/01 05:12:07;;;;;;;0.60;0.60;;;;;;;23.32;39.55;99595.25;4535894;28;20045;-68
2023/07/01 05:14:18;;;;;;;0.70;0.70;;;;;;;23.32;40.09;99589.50;4535103;28;20037;-68
2023/07/01 05:16:28;;;;;;;1.50;0.70;;;;;;;23.27;40.03;99587.03;4535071;28;20519;-68
2023/07/01 05:18:39;;;;;;;0.80;0.60;;;;;;;23.26;39.99;99588.28;4539805;28;20436;-68
2023/07/01 05:20:49;;;;;;;0.60;0.60;;;;;;;23.29;40.37;99594.00;4535977;28;20781;-68
2023/07/01 05:22:59;;;;;;;0.50;0.50;;;;;;;23.18;40.62;99569.31;4535071;28;20044;-68
2023/07/01 05:25:10;;;;;;;0.60;0.60;;;;;;;23.19;40.78;99573.81;4534464;28;20029;-68
2023/07/01 05:27:20;;;;;;;0.80;0.60;;;;;;;23.25;40.91;99581.69;4535155;28;20029;-67
2023/07/01 05:29:31;;;;;;;0.50;0.50;;;;;;;23.28;40.97;99585.78;4534687;28;20025;-68
2023/07/01 05:31:41;;;;;;;0.73;0.70;;;;;;;23.29;41.02;99587.44;4533136;28;20588;-67
2023/07/01 05:33:52;;;;;;;0.60;0.60;;;;;;;23.28;41.47;99585.78;4533076;28;20131;-67
2023/07/01 05:36:02;;;;;;;0.55;0.52;;;;;;;23.27;42.25;99587.03;4534769;28;20048;-67
2023/07/01 05:38:13;;;;;;;0.63;0.63;;;;;;;23.31;43.03;99590.72;4535636;28;20062;-68
2023/07/01 05:40:23;;;;;;;0.85;0.70;;;;;;;23.28;43.47;99585.78;4534691;28;20044;-67
2023/07/01 05:42:34;;;;;;;0.60;0.60;;;;;;;23.30;43.42;99583.31;4535462;28;20336;-67
2023/07/01 05:44:44;;;;;;;0.60;0.52;;;;;;;23.26;42.96;99576.75;4534395;28;20042;-68
2023/07/01 05:46:55;;;;;;;0.50;0.50;;;;;;;23.25;43.68;99572.19;4535008;28;20033;-68
2023/07/01 05:49:06;;;;;;;0.50;0.50;;;;;;;23.23;44.23;99569.72;4533844;28;20040;-68
2023/07/01 05:51:16;;;;;;;1.05;0.60;;;;;;;23.28;42.97;99572.22;4534918;28;20120;-68
2023/07/01 05:53:27;;;;;;;0.90;0.60;;;;;;;23.18;42.79;99552.03;4535205;28;20043;-68
2023/07/01 05:55:37;;;;;;;0.60;0.60;;;;;;;23.23;43.86;99566.03;4522962;28;20156;-67
2023/07/01 05:57:48;;;;;;;0.47;0.47;;;;;;;23.24;43.50;99564.78;4533432;28;20045;-68
2023/07/01 05:59:58;;;;;;;0.77;0.60;;;;;;;23.26;43.18;99568.13;4535889;28;20062;-67
2023/07/01 06:02:08;;;;;;;0.95;0.50;;;;;;;23.27;43.42;99570.59;4535129;28;20048;-68
2023/07/01 06:04:19;;;;;;;0.70;0.70;;;;;;;23.26;42.88;99571.81;4535718;28;20095;-68
2023/07/01 06:06:29;;;;;;;1.13;0.70;;;;;;;23.16;43.50;99554.50;4535879;28;20084;-67
2023/07/01 06:08:42;;;;;;;0.60;0.60;;;;;;;23.22;42.87;99567.25;4534501;28;20867;-68
2023/07/01 06:10:52;;;;;;;1.15;0.80;;;;;;;23.27;42.59;99573.47;4531924;28;20041;-67
2023/07/01 06:13:02;;;;;;;1.05;0.68;;;;;;;23.26;42.73;99562.38;4534959;28;20048;-67
2023/07/01 06:15:13;;;;;;;1.15;0.70;;;;;;;23.21;43.03;99552.00;4550086;28;20039;-67
2023/07/01 06:17:25;;;;;;;0.60;0.60;;;;;;;23.23;42.66;99558.19;4533905;28;20543;-67
2023/07/01 06:19:35;;;;;;;0.88;0.60;;;;;;;23.23;43.18;99548.75;4533610;28;20116;-67
2023/07/01 06:21:46;;;;;;;0.70;0.70;;;;;;;23.26;42.90;99547.97;4534339;28;20024;-67
2023/07/01 06:23:56;;;;;;;0.68;0.60;;;;;;;23.28;42.63;99551.22;4533710;28;20040;-67
2023/07/01 06:26:07;;;;;;;1.13;0.65;;;;;;;23.27;43.08;99550.44;4533142;28;20479;-67
2023/07/01 06:28:17;;;;;;;0.90;0.70;;;;;;;23.29;42.96;99550.03;4535154;28;20075;-68
2023/07/01 06:30:28;;;;;;;0.98;0.63;;;;;;;23.26;43.12;99543.00;4521117;28;20576;-68
2023/07/01 06:32:38;;;;;;;1.02;0.90;;;;;;;23.26;42.88;99537.25;4534047;28;20583;-68
2023/07/01 06:34:49;;;;;;;0.90;0.70;;;;;;;23.23;42.84;99522.84;4534818;28;20056;-68
2023/07/01 06:36:59;;;;;;;1.10;0.77;;;;;;;23.27;42.97;99532.31;4533332;28;20075;-68
2023/07/01 06:39:11;;;;;;;0.60;0.60;;;;;;;23.28;42.90;99536.84;4534782;28;20220;-67
2023/07/01 06:41:22;;;;;;;0.57;0.55;;;;;;;23.28;43.01;99526.16;4534112;28;20025;-65
2023/07/01 06:43:37;;;;;;;0.93;0.80;;;;;;;23.25;42.77;99524.09;4534957;28;20037;-66
2023/07/01 06:45:47;;;;;;;0.77;0.70;;;;;;;23.24;43.04;99536.00;4534520;28;20287;-66
2023/07/01 06:47:58;;;;;;;0.75;0.70;;;;;;;23.29;42.70;99533.53;4534635;28;20143;-67
2023/07/01 06:50:08;;;;;;;1.25;0.77;;;;;;;23.28;43.01;99528.19;4533340;28;20101;-65
2023/07/01 06:52:19;;;;;;;1.52;0.85;;;;;;;23.27;42.73;99526.56;4533343;28;20052;-65
2023/07/01 06:54:29;;;;;;;0.90;0.70;;;;;;;23.26;42.52;99519.19;4532305;28;20044;-65
2023/07/01 06:56:39;;;;;;;0.80;0.65;;;;;;;23.26;42.61;99527.81;4533139;28;20076;-66
2023/07/01 06:58:50;;;;;;;1.00;0.80;;;;;;;23.25;42.52;99511.72;4534860;28;20033;-66
2023/07/01 07:01:00;;;;;;;1.55;0.90;;;;;;;23.29;42.83;99524.09;4516063;28;20564;-66
2023/07/01 07:03:11;;;;;;;1.63;0.80;;;;;;;23.27;42.70;99520.81;4533424;28;20064;-66
2023/07/01 07:05:21;;;;;;;0.77;0.70;;;;;;;23.25;42.33;99524.09;4533710;28;20501;-63
2023/07/01 07:07:32;;;;;;;0.70;0.70;;;;;;;23.28;42.20;99528.19;4533519;28;20041;-64
2023/07/01 07:09:43;;;;;;;1.00;0.80;;;;;;;23.23;42.42;99505.56;4533499;28;20118;-64
2023/07/01 07:11:54;;;;;;;0.82;0.80;;;;;;;23.26;42.61;99522.06;4536324;28;20608;-63
2023/07/01 07:14:05;;;;;;;0.73;0.73;;;;;;;23.24;42.84;99515.84;4536443;28;20029;-64
2023/07/01 07:16:15;;;;;;;0.90;0.85;;;;;;;23.27;42.35;99515.06;4525348;28;20042;-64
2023/07/01 07:18:26;;;;;;;0.98;0.82;;;;;;;23.23;42.55;99511.34;4536630;28;20041;-64
2023/07/01 07:20:38;;;;;;;0.82;0.80;;;;;;;23.26;42.90;99513.41;4537007;28;20080;-64
2023/07/01 07:22:48;;;;;;;1.42;0.90;;;;;;;23.24;42.54;99508.03;4537268;28;20151;-64
2023/07/01 07:24:59;;;;;;;0.93;0.80;;;;;;;23.17;42.65;99499.38;4537788;28;20236;-64
2023/07/01 07:27:10;;;;;;;0.68;0.65;;;;;;;23.25;42.66;99505.97;4524831;28;20064;-64
2023/07/01 07:29:20;;;;;;;1.08;0.85;;;;;;;23.25;42.31;99505.97;4535677;28;20040;-64
2023/07/01 07:31:31;;;;;;;0.85;0.73;;;;;;;23.27;42.82;99509.28;4535513;28;20040;-64
2023/07/01 07:33:41;;;;;;;1.33;0.82;;;;;;;23.23;42.84;99503.50;4537476;28;20375;-64
2023/07/01 07:35:52;;;;;;;1.35;0.80;;;;;;;23.28;42.57;99513.81;4536534;28;20059;-64
2023/07/01 07:38:02;;;;;;;0.82;0.80;;;;;;;23.21;42.45;99490.75;4537265;28;20037;-64
2023/07/01 07:40:13;;;;;;;1.23;0.75;;;;;;;23.26;42.73;99501.91;4535904;28;20124;-64
2023/07/01 07:42:23;;;;;;;1.10;0.85;;;;;;;23.26;42.89;99496.16;4537263;28;20045;-64
2023/07/01 07:44:33;;;;;;;1.23;0.80;;;;;;;23.15;42.58;99484.56;4536115;28;20255;-64
2023/07/01 07:46:44;;;;;;;0.85;0.80;;;;;;;23.31;42.58;99507.22;4533806;28;20068;-64
2023/07/01 07:48:55;;;;;;;0.73;0.73;;;;;;;23.28;42.41;99502.28;4535500;28;20685;-65
2023/07/01 07:51:05;;;;;;;0.70;0.70;;;;;;;23.30;42.43;99508.47;4535524;28;20037;-64
2023/07/01 07:53:16;;;;;;;1.13;0.70;;;;;;;23.20;42.18;99486.22;4535562;28;20017;-66
2023/07/01 07:55:29;;;;;;;0.95;0.70;;;;;;;23.31;42.50;99510.94;4536516;28;20041;-65
2023/07/01 07:57:43;;;;;;;0.85;0.80;;;;;;;23.32;42.41;99509.72;4535051;28;20044;-67
2023/07/01 07:59:53;;;;;;;1.17;0.90;;;;;;;23.31;42.29;99510.94;4535668;28;20128;-64
2023/07/01 08:02:04;;;;;;;1.00;0.82;;;;;;;23.31;41.98;99510.94;4535008;28;20041;-63
2023/07/01 08:04:15;;;;;;;0.73;0.70;;;;;;;23.31;42.48;99510.09;4535537;28;20353;-63
2023/07/01 08:06:26;;;;;;;0.95;0.80;;;;;;;23.34;42.83;99515.06;4536428;28;20157;-64
2023/07/01 08:08:36;;;;;;;0.70;0.70;;;;;;;23.34;42.78;99517.94;4535572;28;20721;-66
2023/07/01 08:10:47;;;;;;;1.15;0.80;;;;;;;23.33;42.95;99513.41;4535632;28;20495;-65
2023/07/01 08:12:57;;;;;;;1.15;0.80;;;;;;;23.33;43.06;99514.22;4535638;28;20497;-64
2023/07/01 08:15:09;;;;;;;1.42;0.75;;;;;;;23.31;43.84;99510.09;4536477;28;20029;-64
2023/07/01 08:17:20;;;;;;;1.00;0.82;;;;;;;23.37;43.73;99522.88;4535897;28;20114;-65
2023/07/01 08:19:30;;;;;;;0.90;0.70;;;;;;;23.35;44.23;99522.44;4536449;28;20086;-65
2023/07/01 08:21:41;;;;;;;0.93;0.70;;;;;;;23.38;44.50;99538.91;4535659;28;20854;-64
2023/07/01 08:23:51;;;;;;;0.88;0.70;;;;;;;23.37;45.22;99525.75;4534765;28;20041;-63
2023/07/01 08:26:03;;;;;;;0.60;0.60;;;;;;;23.29;45.03;99513.38;4534820;28;20797;-64
2023/07/01 08:28:13;;;;;;;0.95;0.85;;;;;;;23.38;45.02;99521.63;4536191;28;20723;-66
2023/07/01 08:30:23;;;;;;;0.95;0.70;;;;;;;23.36;45.26;99524.91;4535196;28;20203;-65
2023/07/01 08:32:34;;;;;;;0.60;0.60;;;;;;;23.39;45.22;99520.38;4535125;28;20062;-65
2023/07/01 08:34:44;;;;;;;0.88;0.77;;;;;;;23.37;45.66;99522.88;4534978;28;20036;-67
2023/07/01 08:36:55;;;;;;;1.08;0.90;;;;;;;23.42;45.94;99525.34;4536396;28;20124;-61
2023/07/01 08:39:05;;;;;;;1.27;0.80;;;;;;;23.42;45.90;99534.78;4535979;28;20064;-61
2023/07/01 08:41:18;;;;;;;1.17;0.90;;;;;;;23.42;46.79;99533.97;4534530;28;20068;-61
2023/07/01 08:43:29;;;;;;;0.82;0.65;;;;;;;23.35;47.08;99523.28;4535143;28;20648;-61
2023/07/01 08:45:40;;;;;;;1.00;0.90;;;;;;;23.35;46.75;99526.16;4536131;28;20044;-60
2023/07/01 08:47:58;;;;;;;1.25;0.90;;;;;;;23.41;47.88;99529.44;4535848;28;20068;-62
2023/07/01 08:50:09;;;;;;;1.02;0.82;;;;;;;23.41;47.99;99535.19;4534695;28;20027;-61
2023/07/01 08:52:21;;;;;;;0.95;0.85;;;;;;;23.38;48.47;99533.16;4535796;28;20088;-61
2023/07/01 08:54:36;;;;;;;0.88;0.80;;;;;;;23.41;48.88;99532.31;4537315;28;21207;-60
2023/07/01 08:56:48;;;;;;;1.08;0.73;;;;;;;23.41;48.64;99529.44;4536574;28;21034;-61
2023/07/01 08:58:58;;;;;;;0.98;0.88;;;;;;;23.39;48.86;99526.13;4535772;28;20131;-61
2023/07/01 09:01:09;;;;;;;1.00;0.70;;;;;;;23.40;49.33;99530.69;4534418;28;20531;-61
2023/07/01 09:03:20;;;;;;;1.00;0.70;;;;;;;23.38;49.19;99521.63;4536550;28;20059;-61
2023/07/01 09:05:31;;;;;;;1.85;0.90;;;;;;;23.43;49.17;99532.75;4535618;28;20075;-61
2023/07/01 09:07:41;;;;;;;0.70;0.70;;;;;;;23.39;49.36;99520.38;4539958;28;20091;-61
2023/07/01 09:09:52;;;;;;;1.63;0.90;;;;;;;23.43;49.95;99524.09;4536152;28;20040;-61
2023/07/01 09:12:02;;;;;;;0.90;0.90;;;;;;;23.46;49.49;99526.16;4535195;28;20040;-61
2023/07/01 09:14:13;;;;;;;1.08;0.85;;;;;;;23.41;50.10;99517.91;4535530;28;20098;-61
2023/07/01 09:16:35;;;;;;;1.30;0.90;;;;;;;23.42;49.62;99516.69;4534495;28;20582;-61
2023/07/01 09:18:47;;;;;;;0.90;0.80;;;;;;;23.28;49.95;99487.88;4525855;28;20186;-61
2023/07/01 09:20:58;;;;;;;0.80;0.80;;;;;;;23.44;50.07;99525.72;4536524;28;20834;-61
2023/07/01 09:23:08;;;;;;;0.93;0.73;;;;;;;23.41;49.36;99513.00;4535493;28;20051;-60
2023/07/01 09:25:29;;;;;;;1.17;0.90;;;;;;;23.42;49.64;99516.69;4533349;28;20041;-61
2023/07/01 09:27:41;;;;;;;0.77;0.77;;;;;;;23.41;49.84;99503.53;4535393;28;20033;-61
2023/07/01 09:29:52;;;;;;;1.05;0.80;;;;;;;23.39;50.41;99497.34;4535494;28;20033;-61
2023/07/01 09:32:04;;;;;;;0.75;0.75;;;;;;;23.47;50.39;99507.63;4536231;28;20045;-61
2023/07/01 09:34:21;;;;;;;0.85;0.75;;;;;;;23.45;50.10;99499.41;4534700;28;20028;-61
2023/07/01 09:36:32;;;;;;;0.70;0.70;;;;;;;23.46;50.48;99500.22;4535295;28;20104;-61
2023/07/01 09:38:51;;;;;;;0.88;0.75;;;;;;;23.38;50.63;99481.31;4536229;28;20897;-61
2023/07/01 09:41:19;;;;;;;1.38;0.80;;;;;;;23.46;50.42;99488.72;4536537;28;20041;-61
2023/07/01 09:43:32;;;;;;;0.70;0.70;;;;;;;23.47;50.45;99485.41;4535122;28;20025;-61
2023/07/01 09:45:56;;;;;;;1.10;0.90;;;;;;;23.46;50.14;99486.66;4534718;28;20072;-61
2023/07/01 09:48:16;;;;;;;0.70;0.70;;;;;;;23.40;49.72;99479.66;4522177;28;20042;-61
2023/07/01 09:50:29;;;;;;;0.63;0.63;;;;;;;23.49;49.28;99490.75;4521976;28;20152;-61
2023/07/01 09:52:39;;;;;;;0.68;0.68;;;;;;;23.43;49.22;99478.03;4534054;28;20095;-61
2023/07/01 09:54:50;;;;;;;1.00;0.68;;;;;;;23.49;48.70;99485.00;4535852;28;20095;-61
2023/07/01 09:57:01;;;;;;;0.70;0.70;;;;;;;23.37;48.19;99471.84;4534472;28;20513;-61
2023/07/01 09:59:12;;;;;;;0.68;0.68;;;;;;;23.53;48.78;99485.84;4549525;28;20075;-62
2023/07/01 10:01:22;;;;;;;0.60;0.60;;;;;;;23.54;48.51;99484.59;4534884;28;20037;-61
2023/07/01 10:03:33;;;;;;;0.82;0.70;;;;;;;23.56;48.26;99487.88;4535801;28;20045;-63
2023/07/01 10:05:45;;;;;;;0.70;0.70;;;;;;;23.50;48.31;99478.81;4523142;28;20125;-61
2023/07/01 10:07:55;;;;;;;0.80;0.60;;;;;;;23.51;48.23;99476.78;4535493;28;20598;-62
2023/07/01 10:10:12;;;;;;;0.73;0.70;;;;;;;23.48;47.79;99466.09;4533933;28;20045;-62
2023/07/01 10:12:23;;;;;;;;;;;;;;;23.53;48.07;99482.94;4535975;28;20045;-61
2023/07/01 10:14:35;;;;;;;0.50;0.50;;;;;;;23.50;48.15;99473.06;4534581;28;19916;-62
2023/07/01 10:16:49;;;;;;;0.60;0.60;;;;;;;23.52;48.32;99482.13;4533352;28;20072;-61
2023/07/01 10:19:00;;;;;;;0.50;0.50;;;;;;;23.51;48.32;99476.78;4534555;28;20076;-61